sensor_id;sensor_type;location;lat;lon;timestamp;temperature;humidity
7399;DHT22;3740;50.700;7.184;2023-07-31T00:00:05;19.00;99.90
7399;DHT22;3740;50.700;7.184;2023-07-31T00:02:30;19.00;99.90
7399;DHT22;3740;50.700;7.184;2023-07-31T00:04:56;18.90;99.90
7399;DHT22;3740;50.700;7.184;2023-07-31T00:07:22;18.90;99.90
7399;DHT22;3740;50.700;7.184;2023-07-31T00:09:47;18.90;99.90
7399;DHT22;3740;50.700;7.184;2023-07-31T00:12:13;18.90;99.90
7399;DHT22;3740;50.700;7.184;2023-07-31T00:14:38;18.90;99.90
7399;DHT22;3740;50.700;7.184;2023-07-31T00:17:04;18.90;99.90
7399;DHT22;3740;50.700;7.184;2023-07-31T00:19:30;19.00;99.90
7399;DHT22;3740;50.700;7.184;2023-07-31T00:21:55;18.90;99.90
7399;DHT22;3740;50.700;7.184;2023-07-31T00:24:21;18.90;99.90
7399;DHT22;3740;50.700;7.184;2023-07-31T00:26:47;18.90;99.90
7399;DHT22;3740;50.700;7.184;2023-07-31T00:29:12;18.90;99.90
7399;DHT22;3740;50.700;7.184;2023-07-31T00:31:38;18.90;99.90
7399;DHT22;3740;50.700;7.184;2023-07-31T00:34:03;19.00;99.90
7399;DHT22;3740;50.700;7.184;2023-07-31T00:36:29;18.90;99.90
7399;DHT22;3740;50.700;7.184;2023-07-31T00:38:54;18.90;99.90
7399;DHT22;3740;50.700;7.184;2023-07-31T00:41:20;18.90;99.90
7399;DHT22;3740;50.700;7.184;2023-07-31T00:43:45;18.90;99.90
7399;DHT22;3740;50.700;7.184;2023-07-31T00:46:11;18.90;99.90
7399;DHT22;3740;50.700;7.184;2023-07-31T00:48:37;18.90;99.90
7399;DHT22;3740;50.700;7.184;2023-07-31T00:51:04;19.00;99.90
7399;DHT22;3740;50.700;7.184;2023-07-31T00:53:29;18.90;99.90
7399;DHT22;3740;50.700;7.184;2023-07-31T00:55:55;18.90;99.90
7399;DHT22;3740;50.700;7.184;2023-07-31T00:58:21;19.00;99.90
7399;DHT22;3740;50.700;7.184;2023-07-31T01:00:47;18.90;99.90
7399;DHT22;3740;50.700;7.184;2023-07-31T01:03:13;18.90;99.90
7399;DHT22;3740;50.700;7.184;2023-07-31T01:08:54;18.90;99.90
7399;DHT22;3740;50.700;7.184;2023-07-31T01:11:38;18.90;99.90
7399;DHT22;3740;50.700;7.184;2023-07-31T01:14:05;18.90;99.90
7399;DHT22;3740;50.700;7.184;2023-07-31T01:16:31;18.90;99.90
7399;DHT22;3740;50.700;7.184;2023-07-31T01:18:56;18.90;99.90
7399;DHT22;3740;50.700;7.184;2023-07-31T01:29:49;18.90;99.90
7399;DHT22;3740;50.700;7.184;2023-07-31T01:32:18;18.90;99.90
7399;DHT22;3740;50.700;7.184;2023-07-31T01:34:45;18.90;99.90
7399;DHT22;3740;50.700;7.184;2023-07-31T01:37:12;18.90;99.90
7399;DHT22;3740;50.700;7.184;2023-07-31T01:39:37;18.80;99.90
7399;DHT22;3740;50.700;7.184;2023-07-31T01:42:03;18.80;99.90
7399;DHT22;3740;50.700;7.184;2023-07-31T01:44:28;18.80;99.90
7399;DHT22;3740;50.700;7.184;2023-07-31T01:46:54;18.80;99.90
7399;DHT22;3740;50.700;7.184;2023-07-31T01:49:20;18.80;99.90
7399;DHT22;3740;50.700;7.184;2023-07-31T01:51:45;18.70;99.90
7399;DHT22;3740;50.700;7.184;2023-07-31T01:54:11;18.70;99.90
7399;DHT22;3740;50.700;7.184;2023-07-31T01:56:36;18.70;99.90
7399;DHT22;3740;50.700;7.184;2023-07-31T01:59:02;18.70;99.90
7399;DHT22;3740;50.700;7.184;2023-07-31T02:01:28;18.70;99.90
7399;DHT22;3740;50.700;7.184;2023-07-31T02:03:53;18.70;99.90
7399;DHT22;3740;50.700;7.184;2023-07-31T02:06:19;18.70;99.90
7399;DHT22;3740;50.700;7.184;2023-07-31T02:08:45;18.70;99.90
7399;DHT22;3740;50.700;7.184;2023-07-31T02:11:10;18.60;99.90
7399;DHT22;3740;50.700;7.184;2023-07-31T02:13:36;18.60;99.90
7399;DHT22;3740;50.700;7.184;2023-07-31T02:16:01;18.60;99.90
7399;DHT22;3740;50.700;7.184;2023-07-31T02:18:27;18.60;99.90
7399;DHT22;3740;50.700;7.184;2023-07-31T02:20:53;18.60;99.90
7399;DHT22;3740;50.700;7.184;2023-07-31T02:23:19;18.60;99.90
7399;DHT22;3740;50.700;7.184;2023-07-31T02:25:45;18.60;99.90
7399;DHT22;3740;50.700;7.184;2023-07-31T02:28:11;18.70;99.90
7399;DHT22;3740;50.700;7.184;2023-07-31T02:30:37;18.70;99.90
7399;DHT22;3740;50.700;7.184;2023-07-31T02:33:03;18.60;99.90
7399;DHT22;3740;50.700;7.184;2023-07-31T02:35:29;18.60;99.90
7399;DHT22;3740;50.700;7.184;2023-07-31T02:37:54;18.70;99.90
7399;DHT22;3740;50.700;7.184;2023-07-31T02:40:20;18.70;99.90
7399;DHT22;3740;50.700;7.184;2023-07-31T02:42:45;18.70;99.90
7399;DHT22;3740;50.700;7.184;2023-07-31T02:45:11;18.70;99.90
7399;DHT22;3740;50.700;7.184;2023-07-31T02:47:36;19.40;99.90
7399;DHT22;3740;50.700;7.184;2023-07-31T02:50:03;18.70;99.90
7399;DHT22;3740;50.700;7.184;2023-07-31T02:52:29;18.70;99.90
7399;DHT22;3740;50.700;7.184;2023-07-31T02:54:54;18.70;99.90
7399;DHT22;3740;50.700;7.184;2023-07-31T02:57:20;18.70;99.90
7399;DHT22;3740;50.700;7.184;2023-07-31T02:59:45;18.70;99.90
7399;DHT22;3740;50.700;7.184;2023-07-31T03:02:11;18.70;99.90
7399;DHT22;3740;50.700;7.184;2023-07-31T03:04:38;18.70;99.90
7399;DHT22;3740;50.700;7.184;2023-07-31T03:07:04;18.70;99.90
7399;DHT22;3740;50.700;7.184;2023-07-31T03:09:30;18.70;99.90
7399;DHT22;3740;50.700;7.184;2023-07-31T03:11:55;18.70;99.90
7399;DHT22;3740;50.700;7.184;2023-07-31T03:14:24;18.70;99.90
7399;DHT22;3740;50.700;7.184;2023-07-31T03:16:52;18.70;99.90
7399;DHT22;3740;50.700;7.184;2023-07-31T03:19:17;18.70;99.90
7399;DHT22;3740;50.700;7.184;2023-07-31T03:21:43;18.70;99.90
7399;DHT22;3740;50.700;7.184;2023-07-31T03:24:08;18.70;99.90
7399;DHT22;3740;50.700;7.184;2023-07-31T03:26:34;18.80;99.90
7399;DHT22;3740;50.700;7.184;2023-07-31T03:29:00;18.80;99.90
7399;DHT22;3740;50.700;7.184;2023-07-31T03:31:26;18.70;99.90
7399;DHT22;3740;50.700;7.184;2023-07-31T03:33:51;18.80;99.90
7399;DHT22;3740;50.700;7.184;2023-07-31T03:36:17;18.80;99.90
7399;DHT22;3740;50.700;7.184;2023-07-31T03:38:43;18.80;99.90
7399;DHT22;3740;50.700;7.184;2023-07-31T03:41:08;18.80;99.90
7399;DHT22;3740;50.700;7.184;2023-07-31T03:43:35;18.80;99.90
7399;DHT22;3740;50.700;7.184;2023-07-31T03:46:01;18.80;99.90
7399;DHT22;3740;50.700;7.184;2023-07-31T03:48:28;18.80;99.90
7399;DHT22;3740;50.700;7.184;2023-07-31T03:50:54;18.80;99.90
7399;DHT22;3740;50.700;7.184;2023-07-31T03:53:19;18.70;99.90
7399;DHT22;3740;50.700;7.184;2023-07-31T03:55:45;18.80;99.90
7399;DHT22;3740;50.700;7.184;2023-07-31T03:58:11;18.80;99.90
7399;DHT22;3740;50.700;7.184;2023-07-31T04:00:36;18.80;99.90
7399;DHT22;3740;50.700;7.184;2023-07-31T04:03:02;18.80;99.90
7399;DHT22;3740;50.700;7.184;2023-07-31T04:05:31;18.80;99.90
7399;DHT22;3740;50.700;7.184;2023-07-31T04:07:57;18.80;99.90
7399;DHT22;3740;50.700;7.184;2023-07-31T04:10:22;18.90;99.90
7399;DHT22;3740;50.700;7.184;2023-07-31T04:12:48;18.90;99.90
7399;DHT22;3740;50.700;7.184;2023-07-31T04:15:14;18.90;99.90
7399;DHT22;3740;50.700;7.184;2023-07-31T04:17:39;18.80;99.90
7399;DHT22;3740;50.700;7.184;2023-07-31T04:20:05;18.80;99.90
7399;DHT22;3740;50.700;7.184;2023-07-31T04:22:31;18.80;99.90
7399;DHT22;3740;50.700;7.184;2023-07-31T04:24:56;18.80;99.90
7399;DHT22;3740;50.700;7.184;2023-07-31T04:27:22;18.90;99.90
7399;DHT22;3740;50.700;7.184;2023-07-31T04:29:48;18.90;99.90
7399;DHT22;3740;50.700;7.184;2023-07-31T04:32:13;18.80;99.90
7399;DHT22;3740;50.700;7.184;2023-07-31T04:34:42;18.80;99.90
7399;DHT22;3740;50.700;7.184;2023-07-31T04:37:07;18.80;99.90
7399;DHT22;3740;50.700;7.184;2023-07-31T04:39:33;18.80;99.90
7399;DHT22;3740;50.700;7.184;2023-07-31T04:41:58;18.80;99.90
7399;DHT22;3740;50.700;7.184;2023-07-31T04:44:24;18.80;99.90
7399;DHT22;3740;50.700;7.184;2023-07-31T04:46:49;18.80;99.90
7399;DHT22;3740;50.700;7.184;2023-07-31T04:49:15;18.90;99.90
7399;DHT22;3740;50.700;7.184;2023-07-31T04:51:41;18.80;99.90
7399;DHT22;3740;50.700;7.184;2023-07-31T04:54:06;18.90;99.90
7399;DHT22;3740;50.700;7.184;2023-07-31T04:56:32;18.80;99.90
7399;DHT22;3740;50.700;7.184;2023-07-31T04:58:57;18.90;99.90
7399;DHT22;3740;50.700;7.184;2023-07-31T05:01:23;18.80;99.90
7399;DHT22;3740;50.700;7.184;2023-07-31T05:03:48;18.90;99.90
7399;DHT22;3740;50.700;7.184;2023-07-31T05:06:14;18.90;99.90
7399;DHT22;3740;50.700;7.184;2023-07-31T05:08:40;18.90;99.90
7399;DHT22;3740;50.700;7.184;2023-07-31T05:11:06;18.90;99.90
7399;DHT22;3740;50.700;7.184;2023-07-31T05:13:31;18.90;99.90
7399;DHT22;3740;50.700;7.184;2023-07-31T05:15:57;19.00;99.90
7399;DHT22;3740;50.700;7.184;2023-07-31T05:18:23;19.00;99.90
7399;DHT22;3740;50.700;7.184;2023-07-31T05:20:48;19.00;99.90
7399;DHT22;3740;50.700;7.184;2023-07-31T05:23:14;19.00;99.90
7399;DHT22;3740;50.700;7.184;2023-07-31T05:25:39;19.00;99.90
7399;DHT22;3740;50.700;7.184;2023-07-31T05:28:05;19.00;99.90
7399;DHT22;3740;50.700;7.184;2023-07-31T05:30:31;19.00;99.90
7399;DHT22;3740;50.700;7.184;2023-07-31T05:32:57;19.10;99.90
7399;DHT22;3740;50.700;7.184;2023-07-31T05:35:22;19.10;99.90
7399;DHT22;3740;50.700;7.184;2023-07-31T05:37:48;19.10;99.90
7399;DHT22;3740;50.700;7.184;2023-07-31T05:40:14;19.10;99.90
7399;DHT22;3740;50.700;7.184;2023-07-31T05:42:39;19.10;99.90
7399;DHT22;3740;50.700;7.184;2023-07-31T05:45:06;19.10;99.90
7399;DHT22;3740;50.700;7.184;2023-07-31T05:47:33;19.10;99.90
7399;DHT22;3740;50.700;7.184;2023-07-31T05:49:58;19.10;99.90
7399;DHT22;3740;50.700;7.184;2023-07-31T05:52:24;19.00;99.90
7399;DHT22;3740;50.700;7.184;2023-07-31T05:54:49;19.10;99.90
7399;DHT22;3740;50.700;7.184;2023-07-31T05:57:15;19.10;99.90
7399;DHT22;3740;50.700;7.184;2023-07-31T05:59:41;19.00;99.90
7399;DHT22;3740;50.700;7.184;2023-07-31T06:02:06;19.10;99.90
7399;DHT22;3740;50.700;7.184;2023-07-31T06:04:32;19.00;99.90
7399;DHT22;3740;50.700;7.184;2023-07-31T06:06:58;19.00;99.90
7399;DHT22;3740;50.700;7.184;2023-07-31T06:09:23;19.10;99.90
7399;DHT22;3740;50.700;7.184;2023-07-31T06:11:50;19.00;99.90
7399;DHT22;3740;50.700;7.184;2023-07-31T06:14:16;19.00;99.90
7399;DHT22;3740;50.700;7.184;2023-07-31T06:16:41;19.00;99.90
7399;DHT22;3740;50.700;7.184;2023-07-31T06:19:07;19.00;99.90
7399;DHT22;3740;50.700;7.184;2023-07-31T06:21:33;18.90;99.90
7399;DHT22;3740;50.700;7.184;2023-07-31T06:23:59;18.80;99.90
7399;DHT22;3740;50.700;7.184;2023-07-31T06:26:24;18.80;99.90
7399;DHT22;3740;50.700;7.184;2023-07-31T06:28:50;18.70;99.90
7399;DHT22;3740;50.700;7.184;2023-07-31T06:31:16;18.60;99.90
7399;DHT22;3740;50.700;7.184;2023-07-31T06:33:45;18.50;99.90
7399;DHT22;3740;50.700;7.184;2023-07-31T06:36:11;18.50;99.90
7399;DHT22;3740;50.700;7.184;2023-07-31T06:38:36;18.40;99.90
7399;DHT22;3740;50.700;7.184;2023-07-31T06:41:03;18.40;99.90
7399;DHT22;3740;50.700;7.184;2023-07-31T06:43:29;18.30;99.90
7399;DHT22;3740;50.700;7.184;2023-07-31T06:45:54;18.30;99.90
7399;DHT22;3740;50.700;7.184;2023-07-31T06:48:20;18.30;99.90
7399;DHT22;3740;50.700;7.184;2023-07-31T06:50:45;18.40;99.90
7399;DHT22;3740;50.700;7.184;2023-07-31T06:53:11;18.40;99.90
7399;DHT22;3740;50.700;7.184;2023-07-31T06:55:37;18.40;99.90
7399;DHT22;3740;50.700;7.184;2023-07-31T06:58:02;18.50;99.90
7399;DHT22;3740;50.700;7.184;2023-07-31T07:00:28;18.50;99.90
7399;DHT22;3740;50.700;7.184;2023-07-31T07:02:54;18.50;99.90
7399;DHT22;3740;50.700;7.184;2023-07-31T07:05:19;18.60;99.90
7399;DHT22;3740;50.700;7.184;2023-07-31T07:07:45;18.70;99.90
7399;DHT22;3740;50.700;7.184;2023-07-31T07:10:11;18.70;99.90
7399;DHT22;3740;50.700;7.184;2023-07-31T07:12:36;18.80;99.90
7399;DHT22;3740;50.700;7.184;2023-07-31T07:15:02;18.90;99.90
7399;DHT22;3740;50.700;7.184;2023-07-31T07:17:29;18.90;99.90
7399;DHT22;3740;50.700;7.184;2023-07-31T07:19:59;19.00;99.90
7399;DHT22;3740;50.700;7.184;2023-07-31T07:22:25;19.20;99.90
7399;DHT22;3740;50.700;7.184;2023-07-31T07:24:51;19.30;99.90
7399;DHT22;3740;50.700;7.184;2023-07-31T07:27:17;19.30;99.90
7399;DHT22;3740;50.700;7.184;2023-07-31T07:29:42;19.30;99.90
7399;DHT22;3740;50.700;7.184;2023-07-31T07:32:08;19.50;99.90
7399;DHT22;3740;50.700;7.184;2023-07-31T07:34:33;19.40;99.90
7399;DHT22;3740;50.700;7.184;2023-07-31T07:36:59;19.40;99.90
7399;DHT22;3740;50.700;7.184;2023-07-31T07:39:25;19.30;99.90
7399;DHT22;3740;50.700;7.184;2023-07-31T07:41:50;19.30;99.90
7399;DHT22;3740;50.700;7.184;2023-07-31T07:44:16;19.30;99.90
7399;DHT22;3740;50.700;7.184;2023-07-31T07:46:41;19.20;99.90
7399;DHT22;3740;50.700;7.184;2023-07-31T07:49:07;19.10;99.90
7399;DHT22;3740;50.700;7.184;2023-07-31T07:51:32;19.10;99.90
7399;DHT22;3740;50.700;7.184;2023-07-31T07:53:59;19.00;99.90
7399;DHT22;3740;50.700;7.184;2023-07-31T07:56:26;18.90;99.90
7399;DHT22;3740;50.700;7.184;2023-07-31T07:58:51;18.90;99.90
7399;DHT22;3740;50.700;7.184;2023-07-31T08:01:17;18.90;99.90
7399;DHT22;3740;50.700;7.184;2023-07-31T08:03:43;18.80;99.90
7399;DHT22;3740;50.700;7.184;2023-07-31T08:06:09;18.80;99.90
7399;DHT22;3740;50.700;7.184;2023-07-31T08:08:35;18.70;99.90
7399;DHT22;3740;50.700;7.184;2023-07-31T08:11:01;18.70;99.90
7399;DHT22;3740;50.700;7.184;2023-07-31T08:13:26;18.70;99.90
7399;DHT22;3740;50.700;7.184;2023-07-31T08:15:52;18.70;99.90
7399;DHT22;3740;50.700;7.184;2023-07-31T08:18:18;18.80;99.90
7399;DHT22;3740;50.700;7.184;2023-07-31T08:20:44;18.70;99.90
7399;DHT22;3740;50.700;7.184;2023-07-31T08:23:10;18.60;99.90
7399;DHT22;3740;50.700;7.184;2023-07-31T08:25:36;18.70;99.90
7399;DHT22;3740;50.700;7.184;2023-07-31T08:28:02;18.70;99.90
7399;DHT22;3740;50.700;7.184;2023-07-31T08:30:28;18.70;99.90
7399;DHT22;3740;50.700;7.184;2023-07-31T08:32:53;18.80;99.90
7399;DHT22;3740;50.700;7.184;2023-07-31T08:35:19;18.80;99.90
7399;DHT22;3740;50.700;7.184;2023-07-31T08:37:44;18.80;99.90
7399;DHT22;3740;50.700;7.184;2023-07-31T08:40:10;18.80;99.90
7399;DHT22;3740;50.700;7.184;2023-07-31T08:43:02;18.90;99.90
7399;DHT22;3740;50.700;7.184;2023-07-31T08:45:28;18.80;99.90
7399;DHT22;3740;50.700;7.184;2023-07-31T08:47:56;18.80;99.90
7399;DHT22;3740;50.700;7.184;2023-07-31T08:50:22;18.80;99.90
7399;DHT22;3740;50.700;7.184;2023-07-31T08:52:49;18.80;99.90
7399;DHT22;3740;50.700;7.184;2023-07-31T08:55:16;18.80;99.90
7399;DHT22;3740;50.700;7.184;2023-07-31T08:57:42;18.80;99.90
7399;DHT22;3740;50.700;7.184;2023-07-31T09:00:10;18.80;99.90
7399;DHT22;3740;50.700;7.184;2023-07-31T09:02:56;18.90;99.90
7399;DHT22;3740;50.700;7.184;2023-07-31T09:05:23;18.90;99.90
7399;DHT22;3740;50.700;7.184;2023-07-31T09:07:50;18.80;99.90
7399;DHT22;3740;50.700;7.184;2023-07-31T09:10:16;18.80;99.90
7399;DHT22;3740;50.700;7.184;2023-07-31T09:12:42;18.80;99.90
7399;DHT22;3740;50.700;7.184;2023-07-31T09:15:09;18.80;99.90
7399;DHT22;3740;50.700;7.184;2023-07-31T09:17:36;18.70;99.90
7399;DHT22;3740;50.700;7.184;2023-07-31T09:22:40;18.80;99.90
7399;DHT22;3740;50.700;7.184;2023-07-31T09:25:19;18.80;99.90
7399;DHT22;3740;50.700;7.184;2023-07-31T09:27:50;18.80;99.90
7399;DHT22;3740;50.700;7.184;2023-07-31T09:30:16;18.80;99.90
7399;DHT22;3740;50.700;7.184;2023-07-31T09:32:43;18.80;99.90
7399;DHT22;3740;50.700;7.184;2023-07-31T09:37:48;18.80;99.90
7399;DHT22;3740;50.700;7.184;2023-07-31T09:40:28;18.80;99.90
7399;DHT22;3740;50.700;7.184;2023-07-31T09:42:57;18.80;99.90
7399;DHT22;3740;50.700;7.184;2023-07-31T09:45:24;18.80;99.90
7399;DHT22;3740;50.700;7.184;2023-07-31T09:47:50;18.80;99.90
7399;DHT22;3740;50.700;7.184;2023-07-31T09:50:15;18.80;99.90
7399;DHT22;3740;50.700;7.184;2023-07-31T09:52:42;18.90;99.90
7399;DHT22;3740;50.700;7.184;2023-07-31T09:55:08;18.90;99.90
7399;DHT22;3740;50.700;7.184;2023-07-31T09:57:39;18.90;99.90
7399;DHT22;3740;50.700;7.184;2023-07-31T10:00:07;19.00;99.90
7399;DHT22;3740;50.700;7.184;2023-07-31T10:02:37;19.00;99.90
7399;DHT22;3740;50.700;7.184;2023-07-31T10:05:04;19.00;99.90
7399;DHT22;3740;50.700;7.184;2023-07-31T10:07:31;19.00;99.90
7399;DHT22;3740;50.700;7.184;2023-07-31T10:09:59;19.00;99.90
7399;DHT22;3740;50.700;7.184;2023-07-31T10:12:27;19.10;99.90
7399;DHT22;3740;50.700;7.184;2023-07-31T10:14:56;19.10;99.90
7399;DHT22;3740;50.700;7.184;2023-07-31T10:17:22;19.20;99.90
7399;DHT22;3740;50.700;7.184;2023-07-31T10:19:49;19.20;99.90
7399;DHT22;3740;50.700;7.184;2023-07-31T10:22:15;19.40;99.90
7399;DHT22;3740;50.700;7.184;2023-07-31T10:24:42;19.40;99.90
7399;DHT22;3740;50.700;7.184;2023-07-31T10:27:09;19.40;99.90
7399;DHT22;3740;50.700;7.184;2023-07-31T10:29:37;19.50;99.90
7399;DHT22;3740;50.700;7.184;2023-07-31T10:32:04;19.50;99.90
7399;DHT22;3740;50.700;7.184;2023-07-31T10:34:34;19.60;99.90
7399;DHT22;3740;50.700;7.184;2023-07-31T10:39:58;19.80;99.90
7399;DHT22;3740;50.700;7.184;2023-07-31T10:42:29;20.00;99.90
7399;DHT22;3740;50.700;7.184;2023-07-31T10:44:58;20.20;99.90
7399;DHT22;3740;50.700;7.184;2023-07-31T10:47:24;20.40;99.90
7399;DHT22;3740;50.700;7.184;2023-07-31T10:49:50;20.60;99.90
7399;DHT22;3740;50.700;7.184;2023-07-31T10:52:20;20.70;99.90
7399;DHT22;3740;50.700;7.184;2023-07-31T10:54:49;20.90;99.90
7399;DHT22;3740;50.700;7.184;2023-07-31T10:57:20;21.00;99.90
7399;DHT22;3740;50.700;7.184;2023-07-31T10:59:46;21.10;99.90
7399;DHT22;3740;50.700;7.184;2023-07-31T11:02:25;21.00;99.90
7399;DHT22;3740;50.700;7.184;2023-07-31T11:05:11;21.00;99.90
7399;DHT22;3740;50.700;7.184;2023-07-31T11:07:49;20.90;99.90
7399;DHT22;3740;50.700;7.184;2023-07-31T11:10:18;20.80;99.90
7399;DHT22;3740;50.700;7.184;2023-07-31T11:12:45;20.70;99.90
7399;DHT22;3740;50.700;7.184;2023-07-31T11:15:12;20.60;99.90
7399;DHT22;3740;50.700;7.184;2023-07-31T11:17:40;20.70;99.90
7399;DHT22;3740;50.700;7.184;2023-07-31T11:20:07;20.80;99.90
7399;DHT22;3740;50.700;7.184;2023-07-31T11:22:35;21.00;99.90
7399;DHT22;3740;50.700;7.184;2023-07-31T11:25:03;21.00;99.90
7399;DHT22;3740;50.700;7.184;2023-07-31T11:27:29;21.00;99.90
7399;DHT22;3740;50.700;7.184;2023-07-31T11:30:01;21.00;99.90
7399;DHT22;3740;50.700;7.184;2023-07-31T11:32:27;21.00;99.90
7399;DHT22;3740;50.700;7.184;2023-07-31T11:34:53;21.00;99.90
7399;DHT22;3740;50.700;7.184;2023-07-31T11:37:19;20.90;99.90
7399;DHT22;3740;50.700;7.184;2023-07-31T11:40:01;21.00;99.90
7399;DHT22;3740;50.700;7.184;2023-07-31T11:42:26;21.10;99.90
7399;DHT22;3740;50.700;7.184;2023-07-31T11:44:52;21.10;99.90
7399;DHT22;3740;50.700;7.184;2023-07-31T11:47:17;20.70;99.90
7399;DHT22;3740;50.700;7.184;2023-07-31T11:49:44;20.30;99.90
7399;DHT22;3740;50.700;7.184;2023-07-31T11:52:10;20.30;99.90
7399;DHT22;3740;50.700;7.184;2023-07-31T11:54:36;20.30;99.90
7399;DHT22;3740;50.700;7.184;2023-07-31T11:57:03;20.40;99.90
7399;DHT22;3740;50.700;7.184;2023-07-31T11:59:30;20.60;99.90
7399;DHT22;3740;50.700;7.184;2023-07-31T12:01:55;20.90;99.90
7399;DHT22;3740;50.700;7.184;2023-07-31T12:04:21;21.10;99.90
7399;DHT22;3740;50.700;7.184;2023-07-31T12:06:47;21.10;99.90
7399;DHT22;3740;50.700;7.184;2023-07-31T12:09:14;21.20;99.90
7399;DHT22;3740;50.700;7.184;2023-07-31T12:11:44;21.30;99.90
7399;DHT22;3740;50.700;7.184;2023-07-31T12:14:24;21.50;99.90
7399;DHT22;3740;50.700;7.184;2023-07-31T12:17:03;21.60;99.90
7399;DHT22;3740;50.700;7.184;2023-07-31T12:19:29;21.70;99.90
7399;DHT22;3740;50.700;7.184;2023-07-31T12:21:56;21.90;99.90
7399;DHT22;3740;50.700;7.184;2023-07-31T12:24:21;22.10;99.90
7399;DHT22;3740;50.700;7.184;2023-07-31T12:26:48;22.20;99.90
7399;DHT22;3740;50.700;7.184;2023-07-31T12:29:14;22.50;99.90
7399;DHT22;3740;50.700;7.184;2023-07-31T12:31:41;22.80;99.90
7399;DHT22;3740;50.700;7.184;2023-07-31T12:34:16;23.10;99.90
7399;DHT22;3740;50.700;7.184;2023-07-31T12:36:43;23.30;99.90
7399;DHT22;3740;50.700;7.184;2023-07-31T12:39:08;23.10;99.90
7399;DHT22;3740;50.700;7.184;2023-07-31T12:41:34;22.90;99.90
7399;DHT22;3740;50.700;7.184;2023-07-31T12:43:59;22.80;99.90
7399;DHT22;3740;50.700;7.184;2023-07-31T12:46:25;22.70;99.90
7399;DHT22;3740;50.700;7.184;2023-07-31T12:48:50;22.50;99.90
7399;DHT22;3740;50.700;7.184;2023-07-31T12:51:16;22.40;99.90
7399;DHT22;3740;50.700;7.184;2023-07-31T12:53:42;22.30;99.90
7399;DHT22;3740;50.700;7.184;2023-07-31T12:56:07;22.30;99.90
7399;DHT22;3740;50.700;7.184;2023-07-31T12:58:33;22.10;99.90
7399;DHT22;3740;50.700;7.184;2023-07-31T13:00:58;21.90;99.90
7399;DHT22;3740;50.700;7.184;2023-07-31T13:03:24;21.90;99.90
7399;DHT22;3740;50.700;7.184;2023-07-31T13:05:50;21.70;99.90
7399;DHT22;3740;50.700;7.184;2023-07-31T13:08:16;21.70;99.90
7399;DHT22;3740;50.700;7.184;2023-07-31T13:10:42;21.70;99.90
7399;DHT22;3740;50.700;7.184;2023-07-31T13:13:09;21.60;99.90
7399;DHT22;3740;50.700;7.184;2023-07-31T13:15:35;21.60;99.90
7399;DHT22;3740;50.700;7.184;2023-07-31T13:18:00;21.60;99.90
7399;DHT22;3740;50.700;7.184;2023-07-31T13:20:26;21.60;99.90
7399;DHT22;3740;50.700;7.184;2023-07-31T13:22:51;21.70;99.90
7399;DHT22;3740;50.700;7.184;2023-07-31T13:25:17;21.70;99.90
7399;DHT22;3740;50.700;7.184;2023-07-31T13:27:42;21.60;99.90
7399;DHT22;3740;50.700;7.184;2023-07-31T13:30:08;21.70;99.90
7399;DHT22;3740;50.700;7.184;2023-07-31T13:32:34;21.70;99.90
7399;DHT22;3740;50.700;7.184;2023-07-31T13:35:07;21.70;99.90
7399;DHT22;3740;50.700;7.184;2023-07-31T13:37:33;21.70;99.90
7399;DHT22;3740;50.700;7.184;2023-07-31T13:39:58;21.90;99.90
7399;DHT22;3740;50.700;7.184;2023-07-31T13:42:24;22.10;99.90
7399;DHT22;3740;50.700;7.184;2023-07-31T13:44:49;22.20;99.90
7399;DHT22;3740;50.700;7.184;2023-07-31T13:47:15;22.30;99.90
7399;DHT22;3740;50.700;7.184;2023-07-31T13:49:40;22.50;99.90
7399;DHT22;3740;50.700;7.184;2023-07-31T13:52:08;22.50;99.90
7399;DHT22;3740;50.700;7.184;2023-07-31T13:54:34;22.50;99.90
7399;DHT22;3740;50.700;7.184;2023-07-31T13:57:00;22.40;99.90
7399;DHT22;3740;50.700;7.184;2023-07-31T13:59:25;22.40;99.90
7399;DHT22;3740;50.700;7.184;2023-07-31T14:01:51;22.40;99.90
7399;DHT22;3740;50.700;7.184;2023-07-31T14:04:17;22.30;99.90
7399;DHT22;3740;50.700;7.184;2023-07-31T14:06:43;22.10;99.90
7399;DHT22;3740;50.700;7.184;2023-07-31T14:09:09;22.10;99.90
7399;DHT22;3740;50.700;7.184;2023-07-31T14:11:35;22.20;99.90
7399;DHT22;3740;50.700;7.184;2023-07-31T14:14:00;22.30;99.90
7399;DHT22;3740;50.700;7.184;2023-07-31T14:16:29;22.40;99.90
7399;DHT22;3740;50.700;7.184;2023-07-31T14:18:55;22.60;99.90
7399;DHT22;3740;50.700;7.184;2023-07-31T14:21:21;22.60;99.90
7399;DHT22;3740;50.700;7.184;2023-07-31T14:23:46;22.60;99.90
7399;DHT22;3740;50.700;7.184;2023-07-31T14:26:12;22.40;99.90
7399;DHT22;3740;50.700;7.184;2023-07-31T14:28:38;22.20;99.90
7399;DHT22;3740;50.700;7.184;2023-07-31T14:31:03;22.00;99.90
7399;DHT22;3740;50.700;7.184;2023-07-31T14:33:29;21.90;99.90
7399;DHT22;3740;50.700;7.184;2023-07-31T14:35:54;21.80;99.90
7399;DHT22;3740;50.700;7.184;2023-07-31T14:38:20;21.60;99.90
7399;DHT22;3740;50.700;7.184;2023-07-31T14:40:46;21.50;99.90
7399;DHT22;3740;50.700;7.184;2023-07-31T14:43:11;21.50;99.90
7399;DHT22;3740;50.700;7.184;2023-07-31T14:45:37;21.40;99.90
7399;DHT22;3740;50.700;7.184;2023-07-31T14:48:02;21.30;99.90
7399;DHT22;3740;50.700;7.184;2023-07-31T14:50:28;21.20;99.90
7399;DHT22;3740;50.700;7.184;2023-07-31T14:52:54;21.10;99.90
7399;DHT22;3740;50.700;7.184;2023-07-31T14:55:19;21.10;99.90
7399;DHT22;3740;50.700;7.184;2023-07-31T14:57:45;21.00;99.90
7399;DHT22;3740;50.700;7.184;2023-07-31T15:00:11;20.90;99.90
7399;DHT22;3740;50.700;7.184;2023-07-31T15:02:37;20.90;99.90
7399;DHT22;3740;50.700;7.184;2023-07-31T15:05:04;20.90;99.90
7399;DHT22;3740;50.700;7.184;2023-07-31T15:07:29;20.90;99.90
7399;DHT22;3740;50.700;7.184;2023-07-31T15:09:55;20.80;99.90
7399;DHT22;3740;50.700;7.184;2023-07-31T15:12:21;20.80;99.90
7399;DHT22;3740;50.700;7.184;2023-07-31T15:14:47;20.90;99.90
7399;DHT22;3740;50.700;7.184;2023-07-31T15:17:13;20.80;99.90
7399;DHT22;3740;50.700;7.184;2023-07-31T15:19:39;20.80;99.90
7399;DHT22;3740;50.700;7.184;2023-07-31T15:22:05;20.80;99.90
7399;DHT22;3740;50.700;7.184;2023-07-31T15:24:30;20.80;99.90
7399;DHT22;3740;50.700;7.184;2023-07-31T15:26:56;20.80;99.90
7399;DHT22;3740;50.700;7.184;2023-07-31T15:29:22;20.80;99.90
7399;DHT22;3740;50.700;7.184;2023-07-31T15:31:48;20.70;99.90
7399;DHT22;3740;50.700;7.184;2023-07-31T15:34:14;20.60;99.90
7399;DHT22;3740;50.700;7.184;2023-07-31T15:36:40;20.70;99.90
7399;DHT22;3740;50.700;7.184;2023-07-31T15:39:06;20.70;99.90
7399;DHT22;3740;50.700;7.184;2023-07-31T15:41:36;20.70;99.90
7399;DHT22;3740;50.700;7.184;2023-07-31T15:44:02;20.80;99.90
7399;DHT22;3740;50.700;7.184;2023-07-31T15:46:28;20.90;99.90
7399;DHT22;3740;50.700;7.184;2023-07-31T15:48:53;21.00;99.90
7399;DHT22;3740;50.700;7.184;2023-07-31T15:51:19;21.00;99.90
7399;DHT22;3740;50.700;7.184;2023-07-31T15:53:45;21.00;99.90
7399;DHT22;3740;50.700;7.184;2023-07-31T15:56:10;21.00;99.90
7399;DHT22;3740;50.700;7.184;2023-07-31T15:58:36;21.00;99.90
7399;DHT22;3740;50.700;7.184;2023-07-31T16:01:04;21.00;99.90
7399;DHT22;3740;50.700;7.184;2023-07-31T16:03:30;20.90;99.90
7399;DHT22;3740;50.700;7.184;2023-07-31T16:05:55;20.90;99.90
7399;DHT22;3740;50.700;7.184;2023-07-31T16:08:21;20.80;99.90
7399;DHT22;3740;50.700;7.184;2023-07-31T16:10:46;20.80;99.90
7399;DHT22;3740;50.700;7.184;2023-07-31T16:13:12;20.70;99.90
7399;DHT22;3740;50.700;7.184;2023-07-31T16:15:37;20.70;99.90